Airfield :
LOGIN :

Register | Disclaimer

   EN    FR    IT 

 










Legend :    VFR   Marginal VFR   IFR   Intensive IFR   Very Intensive IFR
Visi :
Ceiling :
>= 8 km
>= 3000ft
5 to 8 km
1000 to 3000 ft
1500m to 5 km
500 to 1000 ft
800 to 1500m
200 to 500 ft
< 800m
< 200 ft
Symbols :   Thunderstorms  Fog  Heavy snow  Heavy precipitations  Wind > 20 kt
SIGMETs :     Misc.  Thunderstorms  Icing  Turbulence  Mountain Waves  Volcanic Ashes







- Airport Elevation : 308 ft
- IATA code : POZ


EPPO - Poznan-Lawica

CURRENT METAR :
  • 252100Z 36003KT CAVOK 03/00 Q1024

EXPIRED METARs :
  • 252030Z 33004KT CAVOK 04/01 Q1023
  • 252000Z 32005KT CAVOK 04/00 Q1023
  • 251930Z 32006KT CAVOK 05/00 Q1023
  • 251900Z 32006KT CAVOK 06/00 Q1024

TAF TAF EPPO
Valid from the 25 at 18:00 until the 26 at 18:00 UTC


251730Z 2518/2618 36006KT CAVOK
BECMG 2522/2601 2800 BR
PROB30 2601/2606 1300 BR
BECMG 2606/2609 CAVOK
No reported NOTAMs for that airfield.



MET'MAP, your aeronautical weather chart ! - Copyright ORBIFLY December 2007 - Disclaimer

ORBIFLY MET'MAP TEAM :

Programming & Development : Alexandra Zaïnal
Concept & Development : Baudouin d'Aumeries
Co-Development & Prog : Marc-Olivier Méhu
Technical & hardware support : Manuel Goepfert

Contact : metmap@orbifly.com




SOURCES & CREDITS :

   NOAA